sensor_id;sensor_type;location;lat;lon;timestamp;pressure;altitude;pressure_sealevel;temperature;humidity
71778;BME280;59609;52.430;4.668;2023-05-03T00:02:13;103000.78;;;6.67;88.72
71778;BME280;59609;52.430;4.668;2023-05-03T00:04:39;103004.50;;;6.66;88.51
71778;BME280;59609;52.430;4.668;2023-05-03T00:07:05;103010.94;;;6.65;89.04
71778;BME280;59609;52.430;4.668;2023-05-03T00:09:33;103004.56;;;6.64;88.95
71778;BME280;59609;52.430;4.668;2023-05-03T00:11:58;103007.41;;;6.63;88.77
71778;BME280;59609;52.430;4.668;2023-05-03T00:14:25;102995.03;;;6.56;89.58
71778;BME280;59609;52.430;4.668;2023-05-03T00:16:50;103005.81;;;6.59;89.33
71778;BME280;59609;52.430;4.668;2023-05-03T00:19:16;102994.16;;;6.55;90.26
71778;BME280;59609;52.430;4.668;2023-05-03T00:21:41;102993.38;;;6.53;90.37
71778;BME280;59609;52.430;4.668;2023-05-03T00:24:07;102997.06;;;6.52;91.50
71778;BME280;59609;52.430;4.668;2023-05-03T00:26:32;102990.88;;;6.49;91.44
71778;BME280;59609;52.430;4.668;2023-05-03T00:28:58;102991.84;;;6.48;91.34
71778;BME280;59609;52.430;4.668;2023-05-03T00:31:23;102995.56;;;6.47;91.01
71778;BME280;59609;52.430;4.668;2023-05-03T00:33:48;102989.22;;;6.46;92.07
71778;BME280;59609;52.430;4.668;2023-05-03T00:36:14;103000.06;;;6.48;93.06
71778;BME280;59609;52.430;4.668;2023-05-03T00:38:40;102997.50;;;6.45;92.11
71778;BME280;59609;52.430;4.668;2023-05-03T00:41:08;103006.78;;;6.42;92.60
71778;BME280;59609;52.430;4.668;2023-05-03T00:43:34;103004.09;;;6.41;93.07
71778;BME280;59609;52.430;4.668;2023-05-03T00:46:00;103004.81;;;6.44;93.16
71778;BME280;59609;52.430;4.668;2023-05-03T00:48:28;103013.13;;;6.43;92.64
71778;BME280;59609;52.430;4.668;2023-05-03T00:50:55;103010.66;;;6.38;92.35
71778;BME280;59609;52.430;4.668;2023-05-03T00:53:22;103026.19;;;6.38;92.77
71778;BME280;59609;52.430;4.668;2023-05-03T00:55:50;103016.31;;;6.35;92.76
71778;BME280;59609;52.430;4.668;2023-05-03T00:58:16;103016.31;;;6.35;93.43
71778;BME280;59609;52.430;4.668;2023-05-03T01:00:41;103015.22;;;6.38;94.70
71778;BME280;59609;52.430;4.668;2023-05-03T01:03:07;103020.00;;;6.34;93.46
71778;BME280;59609;52.430;4.668;2023-05-03T01:08:37;103012.13;;;6.28;94.14
71778;BME280;59609;52.430;4.668;2023-05-03T01:13:54;103011.44;;;6.25;94.22
71778;BME280;59609;52.430;4.668;2023-05-03T01:16:26;102997.19;;;6.18;93.95
71778;BME280;59609;52.430;4.668;2023-05-03T01:18:56;103001.72;;;6.19;93.73
71778;BME280;59609;52.430;4.668;2023-05-03T01:21:26;102999.94;;;6.18;94.69
71778;BME280;59609;52.430;4.668;2023-05-03T01:24:02;102990.84;;;6.17;95.22
71778;BME280;59609;52.430;4.668;2023-05-03T01:26:31;103002.84;;;6.15;95.59
71778;BME280;59609;52.430;4.668;2023-05-03T01:28:57;102997.38;;;6.15;95.73
71778;BME280;59609;52.430;4.668;2023-05-03T01:32:04;102992.84;;;6.14;95.52
71778;BME280;59609;52.430;4.668;2023-05-03T01:34:37;102989.41;;;6.10;95.92
71778;BME280;59609;52.430;4.668;2023-05-03T01:37:07;102978.75;;;6.06;95.82
71778;BME280;59609;52.430;4.668;2023-05-03T01:39:43;102990.47;;;6.08;95.80
71778;BME280;59609;52.430;4.668;2023-05-03T01:42:10;102976.78;;;6.08;96.16
71778;BME280;59609;52.430;4.668;2023-05-03T01:44:36;102969.03;;;6.00;95.77
71778;BME280;59609;52.430;4.668;2023-05-03T01:47:03;102977.78;;;6.07;95.80
71778;BME280;59609;52.430;4.668;2023-05-03T01:49:28;102971.44;;;6.06;95.74
71778;BME280;59609;52.430;4.668;2023-05-03T01:51:54;102960.66;;;6.03;96.66
71778;BME280;59609;52.430;4.668;2023-05-03T01:54:19;102958.00;;;6.02;96.68
71778;BME280;59609;52.430;4.668;2023-05-03T01:56:46;102951.72;;;6.00;95.75
71778;BME280;59609;52.430;4.668;2023-05-03T01:59:11;102943.34;;;6.03;95.80
71778;BME280;59609;52.430;4.668;2023-05-03T02:01:36;102941.41;;;6.05;96.29
71778;BME280;59609;52.430;4.668;2023-05-03T02:04:02;102934.97;;;6.06;96.04
71778;BME280;59609;52.430;4.668;2023-05-03T02:06:27;102929.56;;;6.04;95.34
71778;BME280;59609;52.430;4.668;2023-05-03T02:08:53;102918.78;;;6.01;95.09
71778;BME280;59609;52.430;4.668;2023-05-03T02:11:18;102916.00;;;6.03;94.36
71778;BME280;59609;52.430;4.668;2023-05-03T02:13:47;102912.53;;;5.99;94.64
71778;BME280;59609;52.430;4.668;2023-05-03T02:16:13;102902.91;;;5.92;94.17
71778;BME280;59609;52.430;4.668;2023-05-03T02:18:39;102919.16;;;5.95;94.18
71778;BME280;59609;52.430;4.668;2023-05-03T02:21:04;102925.50;;;5.96;93.45
71778;BME280;59609;52.430;4.668;2023-05-03T02:23:29;102934.44;;;5.99;92.93
71778;BME280;59609;52.430;4.668;2023-05-03T02:25:56;102933.59;;;5.97;93.15
71778;BME280;59609;52.430;4.668;2023-05-03T02:28:21;102949.16;;;5.97;93.21
71778;BME280;59609;52.430;4.668;2023-05-03T02:30:47;102951.09;;;5.95;93.07
71778;BME280;59609;52.430;4.668;2023-05-03T02:33:12;102954.16;;;5.89;93.34
71778;BME280;59609;52.430;4.668;2023-05-03T02:35:37;102962.53;;;5.86;92.51
71778;BME280;59609;52.430;4.668;2023-05-03T02:38:03;102964.38;;;5.85;94.13
71778;BME280;59609;52.430;4.668;2023-05-03T02:40:28;102956.25;;;5.84;95.20
71778;BME280;59609;52.430;4.668;2023-05-03T02:42:53;102969.63;;;5.90;94.01
71778;BME280;59609;52.430;4.668;2023-05-03T02:45:19;102975.88;;;5.92;93.82
71778;BME280;59609;52.430;4.668;2023-05-03T02:47:45;102966.97;;;5.88;93.71
71778;BME280;59609;52.430;4.668;2023-05-03T02:50:10;102971.47;;;5.89;94.55
71778;BME280;59609;52.430;4.668;2023-05-03T02:52:35;102968.72;;;5.89;94.48
71778;BME280;59609;52.430;4.668;2023-05-03T02:55:01;102970.78;;;5.84;94.28
71778;BME280;59609;52.430;4.668;2023-05-03T02:57:26;102972.81;;;5.81;94.62
71778;BME280;59609;52.430;4.668;2023-05-03T02:59:52;102970.41;;;5.75;94.82
71778;BME280;59609;52.430;4.668;2023-05-03T03:02:17;102977.84;;;5.72;94.63
71778;BME280;59609;52.430;4.668;2023-05-03T03:04:42;102974.56;;;5.66;94.59
71778;BME280;59609;52.430;4.668;2023-05-03T03:07:08;102986.44;;;5.65;94.58
71778;BME280;59609;52.430;4.668;2023-05-03T03:09:33;102993.69;;;5.66;94.65
71778;BME280;59609;52.430;4.668;2023-05-03T03:12:00;102985.38;;;5.67;95.12
71778;BME280;59609;52.430;4.668;2023-05-03T03:14:26;102987.16;;;5.68;94.90
71778;BME280;59609;52.430;4.668;2023-05-03T03:16:52;102986.38;;;5.66;94.21
71778;BME280;59609;52.430;4.668;2023-05-03T03:19:17;102985.66;;;5.63;95.05
71778;BME280;59609;52.430;4.668;2023-05-03T03:21:43;102991.19;;;5.61;95.09
71778;BME280;59609;52.430;4.668;2023-05-03T03:24:08;102980.41;;;5.58;95.02
71778;BME280;59609;52.430;4.668;2023-05-03T03:26:33;102988.56;;;5.60;95.90
71778;BME280;59609;52.430;4.668;2023-05-03T03:28:59;102987.72;;;5.58;96.33
71778;BME280;59609;52.430;4.668;2023-05-03T03:31:25;102985.28;;;5.53;95.79
71778;BME280;59609;52.430;4.668;2023-05-03T03:33:50;102978.19;;;5.49;95.31
71778;BME280;59609;52.430;4.668;2023-05-03T03:36:16;102971.91;;;5.47;95.51
71778;BME280;59609;52.430;4.668;2023-05-03T03:38:41;102970.94;;;5.48;96.38
71778;BME280;59609;52.430;4.668;2023-05-03T03:41:07;102970.22;;;5.45;95.87
71778;BME280;59609;52.430;4.668;2023-05-03T03:43:32;102978.59;;;5.42;96.24
71778;BME280;59609;52.430;4.668;2023-05-03T03:45:58;102982.28;;;5.41;96.27
71778;BME280;59609;52.430;4.668;2023-05-03T03:48:23;102975.22;;;5.37;95.66
71778;BME280;59609;52.430;4.668;2023-05-03T03:50:49;102984.22;;;5.39;95.58
71778;BME280;59609;52.430;4.668;2023-05-03T03:53:14;102986.56;;;5.46;95.63
71778;BME280;59609;52.430;4.668;2023-05-03T03:55:39;102995.47;;;5.50;95.77
71778;BME280;59609;52.430;4.668;2023-05-03T03:58:05;102998.03;;;5.53;95.10
71778;BME280;59609;52.430;4.668;2023-05-03T04:00:30;102999.50;;;5.60;95.30
71778;BME280;59609;52.430;4.668;2023-05-03T04:02:56;103000.03;;;5.66;95.91
71778;BME280;59609;52.430;4.668;2023-05-03T04:05:21;103004.34;;;5.70;94.26
71778;BME280;59609;52.430;4.668;2023-05-03T04:07:46;103010.38;;;5.77;94.19
71778;BME280;59609;52.430;4.668;2023-05-03T04:10:13;103009.06;;;5.86;94.66
71778;BME280;59609;52.430;4.668;2023-05-03T04:12:38;103005.00;;;5.93;94.75
71778;BME280;59609;52.430;4.668;2023-05-03T04:15:04;103011.91;;;6.00;94.28
71778;BME280;59609;52.430;4.668;2023-05-03T04:17:30;103001.41;;;6.08;94.34
71778;BME280;59609;52.430;4.668;2023-05-03T04:19:57;103006.47;;;6.15;93.71
71778;BME280;59609;52.430;4.668;2023-05-03T04:22:22;102998.88;;;6.20;93.55
71778;BME280;59609;52.430;4.668;2023-05-03T04:24:47;103006.78;;;6.27;93.22
71778;BME280;59609;52.430;4.668;2023-05-03T04:27:13;103005.47;;;6.34;93.12
71778;BME280;59609;52.430;4.668;2023-05-03T04:29:39;103007.03;;;6.38;92.83
71778;BME280;59609;52.430;4.668;2023-05-03T04:32:04;103001.22;;;6.44;93.22
71778;BME280;59609;52.430;4.668;2023-05-03T04:34:31;102995.22;;;6.53;93.08
71778;BME280;59609;52.430;4.668;2023-05-03T04:36:56;102992.91;;;6.61;93.05
71778;BME280;59609;52.430;4.668;2023-05-03T04:39:22;102986.28;;;6.65;92.39
71778;BME280;59609;52.430;4.668;2023-05-03T04:41:48;102997.50;;;6.76;92.55
71778;BME280;59609;52.430;4.668;2023-05-03T04:44:13;103000.84;;;6.81;92.58
71778;BME280;59609;52.430;4.668;2023-05-03T04:46:39;103000.22;;;6.92;92.63
71778;BME280;59609;52.430;4.668;2023-05-03T04:49:04;103003.09;;;7.04;92.29
71778;BME280;59609;52.430;4.668;2023-05-03T04:51:30;102989.41;;;7.04;92.01
71778;BME280;59609;52.430;4.668;2023-05-03T04:53:57;103006.69;;;7.20;92.12
71778;BME280;59609;52.430;4.668;2023-05-03T04:56:22;103006.84;;;7.33;92.42
71778;BME280;59609;52.430;4.668;2023-05-03T04:58:51;103004.50;;;7.41;91.74
71778;BME280;59609;52.430;4.668;2023-05-03T05:01:17;103005.13;;;7.46;92.29
71778;BME280;59609;52.430;4.668;2023-05-03T05:03:43;103003.28;;;7.61;92.39
71778;BME280;59609;52.430;4.668;2023-05-03T05:06:08;103003.91;;;7.66;91.38
71778;BME280;59609;52.430;4.668;2023-05-03T05:08:36;103007.59;;;7.65;90.40
71778;BME280;59609;52.430;4.668;2023-05-03T05:11:02;103007.72;;;7.77;89.35
71778;BME280;59609;52.430;4.668;2023-05-03T05:13:30;102995.50;;;7.83;88.61
71778;BME280;59609;52.430;4.668;2023-05-03T05:15:55;103002.06;;;7.95;88.09
71778;BME280;59609;52.430;4.668;2023-05-03T05:18:21;102992.47;;;8.02;87.52
71778;BME280;59609;52.430;4.668;2023-05-03T05:20:46;103011.56;;;8.17;87.17
71778;BME280;59609;52.430;4.668;2023-05-03T05:23:11;103016.69;;;8.23;86.34
71778;BME280;59609;52.430;4.668;2023-05-03T05:25:37;103012.59;;;8.31;85.85
71778;BME280;59609;52.430;4.668;2023-05-03T05:28:02;103006.41;;;8.27;85.54
71778;BME280;59609;52.430;4.668;2023-05-03T05:30:28;103010.03;;;8.42;84.78
71778;BME280;59609;52.430;4.668;2023-05-03T05:32:53;103021.97;;;8.55;84.63
71778;BME280;59609;52.430;4.668;2023-05-03T05:35:18;103011.25;;;8.64;84.35
71778;BME280;59609;52.430;4.668;2023-05-03T05:37:44;103023.81;;;8.68;82.80
71778;BME280;59609;52.430;4.668;2023-05-03T05:40:10;103018.16;;;8.84;83.79
71778;BME280;59609;52.430;4.668;2023-05-03T05:42:36;103013.66;;;8.97;83.32
71778;BME280;59609;52.430;4.668;2023-05-03T05:45:02;103014.72;;;8.95;81.48
71778;BME280;59609;52.430;4.668;2023-05-03T05:47:27;103014.88;;;9.06;81.99
71778;BME280;59609;52.430;4.668;2023-05-03T05:49:53;103007.06;;;9.00;82.09
71778;BME280;59609;52.430;4.668;2023-05-03T05:52:18;103006.66;;;9.18;82.14
71778;BME280;59609;52.430;4.668;2023-05-03T05:54:44;103011.06;;;9.21;79.92
71778;BME280;59609;52.430;4.668;2023-05-03T05:57:09;103012.06;;;9.20;80.29
71778;BME280;59609;52.430;4.668;2023-05-03T05:59:36;103004.91;;;9.17;80.23
71778;BME280;59609;52.430;4.668;2023-05-03T06:02:02;103018.50;;;9.33;79.91
71778;BME280;59609;52.430;4.668;2023-05-03T06:04:28;103011.38;;;9.43;80.62
71778;BME280;59609;52.430;4.668;2023-05-03T06:06:53;103014.69;;;9.61;80.23
71778;BME280;59609;52.430;4.668;2023-05-03T06:09:19;103023.63;;;9.64;79.38
71778;BME280;59609;52.430;4.668;2023-05-03T06:11:44;103031.34;;;9.84;79.06
71778;BME280;59609;52.430;4.668;2023-05-03T06:14:10;103033.69;;;9.91;79.27
71778;BME280;59609;52.430;4.668;2023-05-03T06:16:36;103027.03;;;9.68;77.39
71778;BME280;59609;52.430;4.668;2023-05-03T06:19:01;103028.59;;;9.84;77.34
71778;BME280;59609;52.430;4.668;2023-05-03T06:21:27;103032.97;;;10.14;77.94
71778;BME280;59609;52.430;4.668;2023-05-03T06:23:56;103023.88;;;9.99;78.35
71778;BME280;59609;52.430;4.668;2023-05-03T06:26:22;103025.00;;;10.09;77.22
71778;BME280;59609;52.430;4.668;2023-05-03T06:28:47;103032.84;;;10.15;76.62
71778;BME280;59609;52.430;4.668;2023-05-03T06:31:14;103027.22;;;10.17;76.50
71778;BME280;59609;52.430;4.668;2023-05-03T06:33:40;103022.47;;;10.19;76.00
71778;BME280;59609;52.430;4.668;2023-05-03T06:36:06;103025.31;;;10.17;75.25
71778;BME280;59609;52.430;4.668;2023-05-03T06:38:32;103012.78;;;10.26;76.28
71778;BME280;59609;52.430;4.668;2023-05-03T06:40:57;103009.69;;;10.18;76.12
71778;BME280;59609;52.430;4.668;2023-05-03T06:43:23;103008.13;;;10.39;77.79
71778;BME280;59609;52.430;4.668;2023-05-03T06:45:50;103013.09;;;10.21;76.33
71778;BME280;59609;52.430;4.668;2023-05-03T06:48:17;103009.91;;;10.40;76.42
71778;BME280;59609;52.430;4.668;2023-05-03T06:50:42;103010.19;;;10.48;77.61
71778;BME280;59609;52.430;4.668;2023-05-03T06:53:07;103012.84;;;10.50;72.10
71778;BME280;59609;52.430;4.668;2023-05-03T06:55:33;103004.28;;;10.04;69.55
71778;BME280;59609;52.430;4.668;2023-05-03T06:57:58;103010.75;;;10.53;68.16
71778;BME280;59609;52.430;4.668;2023-05-03T07:00:24;103006.69;;;10.21;67.87
71778;BME280;59609;52.430;4.668;2023-05-03T07:02:50;103005.59;;;10.36;68.66
71778;BME280;59609;52.430;4.668;2023-05-03T07:05:15;103002.38;;;10.42;67.74
71778;BME280;59609;52.430;4.668;2023-05-03T07:07:41;102999.66;;;10.29;66.08
71778;BME280;59609;52.430;4.668;2023-05-03T07:10:06;103001.28;;;10.45;67.02
71778;BME280;59609;52.430;4.668;2023-05-03T07:12:32;102995.94;;;10.67;65.36
71778;BME280;59609;52.430;4.668;2023-05-03T07:14:57;102989.44;;;10.92;65.80
71778;BME280;59609;52.430;4.668;2023-05-03T07:17:23;102982.00;;;11.05;63.91
71778;BME280;59609;52.430;4.668;2023-05-03T07:19:50;102978.47;;;11.26;63.59
71778;BME280;59609;52.430;4.668;2023-05-03T07:22:16;102984.34;;;11.22;62.00
71778;BME280;59609;52.430;4.668;2023-05-03T07:24:42;102976.34;;;11.30;60.69
71778;BME280;59609;52.430;4.668;2023-05-03T07:27:07;102972.31;;;11.23;62.37
71778;BME280;59609;52.430;4.668;2023-05-03T07:29:33;102983.75;;;11.29;61.22
71778;BME280;59609;52.430;4.668;2023-05-03T07:31:59;102981.94;;;11.52;60.14
71778;BME280;59609;52.430;4.668;2023-05-03T07:34:24;102983.81;;;11.52;61.17
71778;BME280;59609;52.430;4.668;2023-05-03T07:36:50;102970.75;;;11.88;61.03
71778;BME280;59609;52.430;4.668;2023-05-03T07:39:16;102973.09;;;11.71;58.79
71778;BME280;59609;52.430;4.668;2023-05-03T07:41:41;102969.13;;;11.51;58.59
71778;BME280;59609;52.430;4.668;2023-05-03T07:44:07;102974.16;;;11.46;60.34
71778;BME280;59609;52.430;4.668;2023-05-03T07:46:32;102963.13;;;12.03;58.45
71778;BME280;59609;52.430;4.668;2023-05-03T07:49:00;102967.00;;;11.90;57.91
71778;BME280;59609;52.430;4.668;2023-05-03T07:51:26;102974.41;;;11.54;56.82
71778;BME280;59609;52.430;4.668;2023-05-03T07:53:53;102977.06;;;12.02;57.34
71778;BME280;59609;52.430;4.668;2023-05-03T07:56:18;102976.00;;;12.80;56.06
71778;BME280;59609;52.430;4.668;2023-05-03T07:58:45;102970.97;;;12.85;55.37
71778;BME280;59609;52.430;4.668;2023-05-03T08:01:11;102994.84;;;12.86;55.35
71778;BME280;59609;52.430;4.668;2023-05-03T08:03:37;102988.69;;;12.83;54.92
71778;BME280;59609;52.430;4.668;2023-05-03T08:06:03;102980.88;;;13.31;53.16
71778;BME280;59609;52.430;4.668;2023-05-03T08:08:28;102987.66;;;12.95;52.11
71778;BME280;59609;52.430;4.668;2023-05-03T08:10:55;102992.88;;;12.66;54.27
71778;BME280;59609;52.430;4.668;2023-05-03T08:13:21;102992.09;;;12.86;52.90
71778;BME280;59609;52.430;4.668;2023-05-03T08:15:47;103001.94;;;12.35;54.33
71778;BME280;59609;52.430;4.668;2023-05-03T08:18:12;102999.56;;;12.30;55.53
71778;BME280;59609;52.430;4.668;2023-05-03T08:20:38;102996.91;;;12.18;55.13
71778;BME280;59609;52.430;4.668;2023-05-03T08:23:03;103003.56;;;12.37;55.05
71778;BME280;59609;52.430;4.668;2023-05-03T08:25:29;102999.28;;;12.45;55.07
71778;BME280;59609;52.430;4.668;2023-05-03T08:27:54;103000.97;;;12.47;54.67
71778;BME280;59609;52.430;4.668;2023-05-03T08:30:20;102992.88;;;12.55;55.57
71778;BME280;59609;52.430;4.668;2023-05-03T08:32:46;103003.56;;;12.71;54.71
71778;BME280;59609;52.430;4.668;2023-05-03T08:35:12;102994.91;;;12.53;54.80
71778;BME280;59609;52.430;4.668;2023-05-03T08:37:40;103000.84;;;13.03;53.00
71778;BME280;59609;52.430;4.668;2023-05-03T08:40:07;103008.06;;;12.83;52.64
71778;BME280;59609;52.430;4.668;2023-05-03T08:42:37;102996.00;;;12.73;52.99
71778;BME280;59609;52.430;4.668;2023-05-03T08:45:03;103001.03;;;13.33;51.99
71778;BME280;59609;52.430;4.668;2023-05-03T08:47:30;102992.75;;;13.74;52.09
71778;BME280;59609;52.430;4.668;2023-05-03T08:50:02;103002.41;;;13.59;51.45
71778;BME280;59609;52.430;4.668;2023-05-03T08:52:27;102996.88;;;14.01;49.73
71778;BME280;59609;52.430;4.668;2023-05-03T08:54:53;103001.88;;;14.07;50.87
71778;BME280;59609;52.430;4.668;2023-05-03T08:57:20;103001.00;;;13.85;50.18
71778;BME280;59609;52.430;4.668;2023-05-03T08:59:51;103001.34;;;13.71;50.37
71778;BME280;59609;52.430;4.668;2023-05-03T09:02:22;103004.81;;;14.15;49.80
71778;BME280;59609;52.430;4.668;2023-05-03T09:04:48;102998.44;;;14.14;48.98
71778;BME280;59609;52.430;4.668;2023-05-03T09:07:13;102999.63;;;13.38;50.38
71778;BME280;59609;52.430;4.668;2023-05-03T09:09:41;102996.31;;;13.13;51.66
71778;BME280;59609;52.430;4.668;2023-05-03T09:12:10;102987.34;;;13.52;50.67
71778;BME280;59609;52.430;4.668;2023-05-03T09:14:43;102992.72;;;13.33;51.24
71778;BME280;59609;52.430;4.668;2023-05-03T09:17:13;103005.69;;;13.64;51.27
71778;BME280;59609;52.430;4.668;2023-05-03T09:19:53;103000.38;;;13.61;51.53
71778;BME280;59609;52.430;4.668;2023-05-03T09:22:19;102989.41;;;13.39;50.71
71778;BME280;59609;52.430;4.668;2023-05-03T09:24:58;102995.06;;;13.06;51.92
71778;BME280;59609;52.430;4.668;2023-05-03T09:27:25;102996.19;;;13.14;52.12
71778;BME280;59609;52.430;4.668;2023-05-03T09:29:51;102999.66;;;13.80;50.62
71778;BME280;59609;52.430;4.668;2023-05-03T09:32:17;102993.78;;;13.73;49.69
71778;BME280;59609;52.430;4.668;2023-05-03T09:34:44;103003.16;;;13.61;51.36
71778;BME280;59609;52.430;4.668;2023-05-03T09:37:10;103010.84;;;13.37;51.60
71778;BME280;59609;52.430;4.668;2023-05-03T09:39:37;103008.22;;;13.56;51.38
71778;BME280;59609;52.430;4.668;2023-05-03T09:42:09;103002.78;;;13.86;51.48
71778;BME280;59609;52.430;4.668;2023-05-03T09:44:46;103006.19;;;13.37;51.17
71778;BME280;59609;52.430;4.668;2023-05-03T09:47:16;103010.59;;;13.81;50.61
71778;BME280;59609;52.430;4.668;2023-05-03T09:49:46;102985.38;;;14.05;49.97
71778;BME280;59609;52.430;4.668;2023-05-03T09:52:11;102998.69;;;14.72;49.84
71778;BME280;59609;52.430;4.668;2023-05-03T09:54:37;102993.84;;;15.33;47.99
71778;BME280;59609;52.430;4.668;2023-05-03T09:57:04;102995.56;;;15.15;48.14
71778;BME280;59609;52.430;4.668;2023-05-03T09:59:35;102992.66;;;15.16;48.55
71778;BME280;59609;52.430;4.668;2023-05-03T10:02:03;103001.72;;;15.28;48.45
71778;BME280;59609;52.430;4.668;2023-05-03T10:04:37;103002.00;;;15.06;49.25
71778;BME280;59609;52.430;4.668;2023-05-03T10:07:07;102996.63;;;15.23;46.82
71778;BME280;59609;52.430;4.668;2023-05-03T10:09:44;102997.88;;;14.90;47.40
71778;BME280;59609;52.430;4.668;2023-05-03T10:12:11;102995.44;;;15.45;47.26
71778;BME280;59609;52.430;4.668;2023-05-03T10:14:40;102998.53;;;15.80;47.73
71778;BME280;59609;52.430;4.668;2023-05-03T10:17:27;102998.09;;;15.75;46.52
71778;BME280;59609;52.430;4.668;2023-05-03T10:19:59;102984.72;;;16.17;45.83
71778;BME280;59609;52.430;4.668;2023-05-03T10:22:25;102987.63;;;16.62;45.14
71778;BME280;59609;52.430;4.668;2023-05-03T10:28:01;102974.53;;;15.79;44.76
71778;BME280;59609;52.430;4.668;2023-05-03T10:30:46;102986.28;;;15.54;44.54
71778;BME280;59609;52.430;4.668;2023-05-03T10:35:41;102983.34;;;15.84;45.81
71778;BME280;59609;52.430;4.668;2023-05-03T10:38:22;102978.25;;;16.17;45.92
71778;BME280;59609;52.430;4.668;2023-05-03T10:40:48;102973.34;;;15.91;46.44
71778;BME280;59609;52.430;4.668;2023-05-03T10:45:59;102970.75;;;16.27;45.61
71778;BME280;59609;52.430;4.668;2023-05-03T10:48:24;102978.72;;;16.12;45.79
71778;BME280;59609;52.430;4.668;2023-05-03T10:50:50;102970.25;;;16.04;44.45
71778;BME280;59609;52.430;4.668;2023-05-03T10:53:39;102972.09;;;16.23;45.22
71778;BME280;59609;52.430;4.668;2023-05-03T10:56:09;102966.91;;;16.01;44.60
71778;BME280;59609;52.430;4.668;2023-05-03T10:58:45;102953.81;;;16.20;44.87
71778;BME280;59609;52.430;4.668;2023-05-03T11:01:13;102958.72;;;16.73;45.44
71778;BME280;59609;52.430;4.668;2023-05-03T11:06:08;102960.50;;;16.55;44.76
71778;BME280;59609;52.430;4.668;2023-05-03T11:08:34;102953.63;;;16.86;44.99
71778;BME280;59609;52.430;4.668;2023-05-03T11:11:03;102946.91;;;16.61;44.51
71778;BME280;59609;52.430;4.668;2023-05-03T11:13:34;102953.00;;;16.92;44.00
71778;BME280;59609;52.430;4.668;2023-05-03T11:16:02;102955.78;;;16.74;43.58
71778;BME280;59609;52.430;4.668;2023-05-03T11:18:28;102964.75;;;16.22;43.11
71778;BME280;59609;52.430;4.668;2023-05-03T11:20:54;102954.13;;;16.44;43.84
71778;BME280;59609;52.430;4.668;2023-05-03T11:23:27;102965.34;;;16.25;44.02
71778;BME280;59609;52.430;4.668;2023-05-03T11:25:53;102941.75;;;16.66;44.34
71778;BME280;59609;52.430;4.668;2023-05-03T11:28:19;102942.47;;;17.31;44.19
71778;BME280;59609;52.430;4.668;2023-05-03T11:30:45;102952.63;;;17.05;43.33
71778;BME280;59609;52.430;4.668;2023-05-03T11:33:11;102942.44;;;16.95;43.41
71778;BME280;59609;52.430;4.668;2023-05-03T11:35:36;102942.44;;;16.95;43.29
71778;BME280;59609;52.430;4.668;2023-05-03T11:38:02;102932.06;;;16.70;43.81
71778;BME280;59609;52.430;4.668;2023-05-03T11:40:27;102937.91;;;16.40;44.20
71778;BME280;59609;52.430;4.668;2023-05-03T11:42:57;102929.41;;;16.69;43.97
71778;BME280;59609;52.430;4.668;2023-05-03T11:45:44;102928.44;;;17.23;43.49
71778;BME280;59609;52.430;4.668;2023-05-03T11:48:13;102925.13;;;16.47;43.65
71778;BME280;59609;52.430;4.668;2023-05-03T11:50:49;102916.84;;;16.65;44.02
71778;BME280;59609;52.430;4.668;2023-05-03T11:53:17;102921.13;;;17.04;43.43
71778;BME280;59609;52.430;4.668;2023-05-03T11:55:45;102921.03;;;17.31;42.66
71778;BME280;59609;52.430;4.668;2023-05-03T11:58:20;102913.53;;;16.79;43.63
71778;BME280;59609;52.430;4.668;2023-05-03T12:00:50;102913.34;;;17.69;43.56
71778;BME280;59609;52.430;4.668;2023-05-03T12:03:20;102908.78;;;17.24;41.87
71778;BME280;59609;52.430;4.668;2023-05-03T12:05:47;102907.78;;;17.69;43.10
71778;BME280;59609;52.430;4.668;2023-05-03T12:08:13;102892.88;;;16.99;43.70
71778;BME280;59609;52.430;4.668;2023-05-03T12:10:40;102901.94;;;17.36;42.39
71778;BME280;59609;52.430;4.668;2023-05-03T12:13:05;102898.03;;;17.12;42.19
71778;BME280;59609;52.430;4.668;2023-05-03T12:15:32;102893.69;;;17.70;42.39
71778;BME280;59609;52.430;4.668;2023-05-03T12:17:59;102890.69;;;17.46;41.54
71778;BME280;59609;52.430;4.668;2023-05-03T12:20:28;102884.13;;;17.73;43.10
71778;BME280;59609;52.430;4.668;2023-05-03T12:23:01;102879.81;;;17.17;43.00
71778;BME280;59609;52.430;4.668;2023-05-03T12:25:28;102886.47;;;17.85;43.12
71778;BME280;59609;52.430;4.668;2023-05-03T12:27:56;102877.84;;;17.71;42.75
71778;BME280;59609;52.430;4.668;2023-05-03T12:30:25;102877.84;;;17.53;42.94
71778;BME280;59609;52.430;4.668;2023-05-03T12:32:51;102874.97;;;17.88;41.50
71778;BME280;59609;52.430;4.668;2023-05-03T12:35:17;102872.59;;;17.68;43.30
71778;BME280;59609;52.430;4.668;2023-05-03T12:37:43;102864.34;;;18.18;41.91
71778;BME280;59609;52.430;4.668;2023-05-03T12:40:09;102857.97;;;17.99;41.82
71778;BME280;59609;52.430;4.668;2023-05-03T12:42:34;102866.69;;;17.71;42.29
71778;BME280;59609;52.430;4.668;2023-05-03T12:45:00;102859.78;;;17.83;43.24
71778;BME280;59609;52.430;4.668;2023-05-03T12:47:25;102857.25;;;17.72;41.90
71778;BME280;59609;52.430;4.668;2023-05-03T12:49:52;102861.69;;;18.16;41.34
71778;BME280;59609;52.430;4.668;2023-05-03T12:52:17;102863.91;;;17.71;42.75
71778;BME280;59609;52.430;4.668;2023-05-03T12:54:43;102854.81;;;17.94;42.59
71778;BME280;59609;52.430;4.668;2023-05-03T12:57:10;102864.75;;;17.97;42.31
71778;BME280;59609;52.430;4.668;2023-05-03T12:59:37;102869.41;;;17.63;42.83
71778;BME280;59609;52.430;4.668;2023-05-03T13:02:02;102859.38;;;18.04;41.93
71778;BME280;59609;52.430;4.668;2023-05-03T13:04:28;102855.09;;;17.83;42.64
71778;BME280;59609;52.430;4.668;2023-05-03T13:06:54;102847.63;;;17.92;42.11
71778;BME280;59609;52.430;4.668;2023-05-03T13:09:21;102847.59;;;17.58;42.12
71778;BME280;59609;52.430;4.668;2023-05-03T13:11:47;102843.94;;;18.17;41.57